createdAt,value
2023-07-19T00:00:57.548Z,56.11
2023-07-19T00:03:24.269Z,56.04
2023-07-19T00:05:50.983Z,56.05
2023-07-19T00:08:17.936Z,56.00
2023-07-19T00:10:44.719Z,55.97
2023-07-19T00:13:14.573Z,55.97
2023-07-19T00:15:41.403Z,55.98
2023-07-19T00:18:08.255Z,55.94
2023-07-19T00:20:35.035Z,55.98
2023-07-19T00:23:02.321Z,56.01
2023-07-19T00:25:29.434Z,55.92
2023-07-19T00:27:56.155Z,55.94
2023-07-19T00:30:23.635Z,55.96
2023-07-19T00:32:50.816Z,56.00
2023-07-19T00:35:18.056Z,55.82
2023-07-19T00:37:45.154Z,55.91
2023-07-19T00:40:12.361Z,55.88
2023-07-19T00:42:39.307Z,55.81
2023-07-19T00:45:06.515Z,55.88
2023-07-19T00:47:35.017Z,55.88
2023-07-19T00:50:09.266Z,55.86
2023-07-19T00:52:36.548Z,55.78
2023-07-19T00:55:04.240Z,55.77
2023-07-19T00:57:35.426Z,55.82
2023-07-19T01:00:02.683Z,55.83
2023-07-19T01:02:30.075Z,55.87
2023-07-19T01:04:57.465Z,55.89
2023-07-19T01:07:24.564Z,55.91
2023-07-19T01:09:53.894Z,55.90
2023-07-19T01:12:20.745Z,55.95
2023-07-19T01:14:47.837Z,55.95
2023-07-19T01:17:14.670Z,55.82
2023-07-19T01:19:41.463Z,55.90
2023-07-19T01:22:08.527Z,55.88
2023-07-19T01:24:37.987Z,55.90
2023-07-19T01:27:20.655Z,55.88
2023-07-19T01:29:49.835Z,55.94
2023-07-19T01:32:17.047Z,55.96
2023-07-19T01:34:44.162Z,55.87
2023-07-19T01:37:11.582Z,55.86
2023-07-19T01:39:38.805Z,55.88
2023-07-19T01:42:05.716Z,55.74
2023-07-19T01:44:32.735Z,55.76
2023-07-19T01:47:00.909Z,55.80
2023-07-19T01:49:27.582Z,55.87
2023-07-19T01:51:54.924Z,55.79
2023-07-19T01:54:24.971Z,55.77
2023-07-19T01:56:51.851Z,55.75
2023-07-19T01:59:18.536Z,55.82
2023-07-19T02:01:45.409Z,55.90
2023-07-19T02:04:12.941Z,55.86
2023-07-19T02:06:40.349Z,55.92
2023-07-19T02:09:07.436Z,55.89
2023-07-19T02:11:34.827Z,55.92
2023-07-19T02:14:04.065Z,55.83
2023-07-19T02:16:31.195Z,55.87
2023-07-19T02:18:58.460Z,55.73
2023-07-19T02:21:28.050Z,55.74
2023-07-19T02:23:55.393Z,55.74
2023-07-19T02:26:22.260Z,55.71
2023-07-19T02:28:49.448Z,55.70
2023-07-19T02:31:16.599Z,55.68
2023-07-19T02:33:43.977Z,55.74
2023-07-19T02:36:14.093Z,55.78
2023-07-19T02:38:41.957Z,55.69
2023-07-19T02:41:08.884Z,55.74
2023-07-19T02:43:35.960Z,55.78
2023-07-19T02:46:03.388Z,55.79
2023-07-19T02:48:34.589Z,55.69
2023-07-19T02:51:04.077Z,55.75
2023-07-19T02:53:31.996Z,55.65
2023-07-19T02:56:01.476Z,55.65
2023-07-19T02:58:31.848Z,55.67
2023-07-19T03:00:59.206Z,55.73
2023-07-19T03:03:26.846Z,55.74
2023-07-19T03:05:53.644Z,55.73
2023-07-19T03:08:20.711Z,55.84
2023-07-19T03:10:48.640Z,55.85
2023-07-19T03:13:15.570Z,55.88
2023-07-19T03:15:46.894Z,55.84
2023-07-19T03:18:14.197Z,55.81
2023-07-19T03:20:44.428Z,55.83
2023-07-19T03:23:11.201Z,55.90
2023-07-19T03:25:38.366Z,55.91
2023-07-19T03:28:06.141Z,55.86
2023-07-19T03:30:36.547Z,55.88
2023-07-19T03:33:03.754Z,56.02
2023-07-19T03:35:30.659Z,56.06
2023-07-19T03:37:57.810Z,55.93
2023-07-19T03:40:24.801Z,56.00
2023-07-19T03:42:52.656Z,55.95
2023-07-19T03:45:19.943Z,55.99
2023-07-19T03:47:46.789Z,56.00
2023-07-19T03:50:14.116Z,56.04
2023-07-19T03:52:43.736Z,56.34
2023-07-19T03:55:12.292Z,56.42
2023-07-19T03:57:41.436Z,56.31
2023-07-19T04:00:09.080Z,56.35
2023-07-19T04:02:35.997Z,56.18
2023-07-19T04:05:06.899Z,56.14
2023-07-19T04:07:33.843Z,56.15
2023-07-19T04:10:00.889Z,56.20
2023-07-19T04:12:31.176Z,56.26
2023-07-19T04:15:03.570Z,56.20
2023-07-19T04:17:37.313Z,56.24
2023-07-19T04:20:08.796Z,56.16
2023-07-19T04:22:37.114Z,56.23
2023-07-19T04:25:04.246Z,56.18
2023-07-19T04:27:34.045Z,56.29
2023-07-19T04:30:01.601Z,56.17
2023-07-19T04:32:28.921Z,56.24
2023-07-19T04:34:55.764Z,56.27
2023-07-19T04:37:26.047Z,56.21
2023-07-19T04:39:56.491Z,56.15
2023-07-19T04:42:23.788Z,56.19
2023-07-19T04:44:51.189Z,56.15
2023-07-19T04:47:17.900Z,56.21
2023-07-19T04:49:44.946Z,56.23
2023-07-19T04:52:11.686Z,56.24
2023-07-19T04:54:38.514Z,56.23
2023-07-19T04:57:06.030Z,56.27
2023-07-19T04:59:33.339Z,56.29
2023-07-19T05:02:00.666Z,56.33
2023-07-19T05:04:35.572Z,56.42
2023-07-19T05:07:02.486Z,56.47
2023-07-19T05:09:29.729Z,56.60
2023-07-19T05:12:02.744Z,56.67
2023-07-19T05:14:29.913Z,56.50
2023-07-19T05:16:56.894Z,56.48
2023-07-19T05:19:23.833Z,56.43
2023-07-19T05:21:54.007Z,56.49
2023-07-19T05:24:21.046Z,56.53
2023-07-19T05:26:48.173Z,56.55
2023-07-19T05:29:21.023Z,56.65
2023-07-19T05:31:47.884Z,56.61
2023-07-19T05:34:17.958Z,56.59
2023-07-19T05:36:51.753Z,56.55
2023-07-19T05:39:18.712Z,56.70
2023-07-19T05:41:45.646Z,56.88
2023-07-19T05:44:13.172Z,56.98
2023-07-19T05:46:40.442Z,56.95
2023-07-19T05:49:10.979Z,57.14
2023-07-19T05:51:38.054Z,57.10
2023-07-19T05:54:06.402Z,57.16
2023-07-19T05:56:34.080Z,57.45
2023-07-19T05:59:00.715Z,57.60
2023-07-19T06:01:30.318Z,57.53
2023-07-19T06:03:59.551Z,57.63
2023-07-19T06:06:26.317Z,57.56
2023-07-19T06:08:57.706Z,57.65
2023-07-19T06:11:24.750Z,57.74
2023-07-19T06:13:51.852Z,57.75
2023-07-19T06:16:22.055Z,57.74
2023-07-19T06:18:49.922Z,57.61
2023-07-19T06:21:24.696Z,57.74
2023-07-19T06:24:05.951Z,57.65
2023-07-19T06:26:34.461Z,57.41
2023-07-19T06:29:02.305Z,57.28
2023-07-19T06:31:44.246Z,57.27
2023-07-19T06:34:15.734Z,57.55
2023-07-19T06:37:10.002Z,57.73
2023-07-19T06:39:57.322Z,57.83
2023-07-19T06:42:33.394Z,57.89
2023-07-19T06:45:24.710Z,57.79
2023-07-19T06:53:44.342Z,58.15
2023-07-19T06:59:33.321Z,58.38
2023-07-19T07:02:23.617Z,58.58
2023-07-19T07:04:55.518Z,58.56
2023-07-19T07:07:22.641Z,58.68
2023-07-19T07:09:52.563Z,58.86
2023-07-19T07:18:09.921Z,59.22
2023-07-19T07:23:42.730Z,59.33
2023-07-19T07:26:09.626Z,59.40
2023-07-19T07:28:36.954Z,59.13
2023-07-19T07:31:06.675Z,59.39
2023-07-19T07:33:33.582Z,59.55
2023-07-19T07:36:04.093Z,59.47
2023-07-19T07:38:34.697Z,59.56
2023-07-19T07:41:06.713Z,59.71
2023-07-19T07:43:33.564Z,59.50
2023-07-19T07:46:00.772Z,59.22
2023-07-19T07:48:27.961Z,59.52
2023-07-19T07:50:57.793Z,59.44
2023-07-19T07:53:25.779Z,59.28
2023-07-19T07:55:54.787Z,59.59
2023-07-19T07:58:28.142Z,59.47
2023-07-19T08:00:54.831Z,59.45
2023-07-19T08:03:24.427Z,59.24
2023-07-19T08:05:53.073Z,59.48
2023-07-19T08:08:19.793Z,59.47
2023-07-19T08:10:47.164Z,59.16
2023-07-19T08:13:34.762Z,59.22
2023-07-19T08:16:02.757Z,59.17
2023-07-19T08:18:29.554Z,59.16
2023-07-19T08:20:56.613Z,59.16
2023-07-19T08:23:23.309Z,59.69
2023-07-19T08:28:43.752Z,59.88
2023-07-19T08:31:10.462Z,59.45
2023-07-19T08:33:57.199Z,59.66
2023-07-19T08:36:24.185Z,59.39
2023-07-19T08:38:50.932Z,59.24
2023-07-19T08:41:23.132Z,59.24
2023-07-19T08:43:50.860Z,59.09
2023-07-19T08:46:19.796Z,59.22
2023-07-19T08:48:49.584Z,59.20
2023-07-19T08:51:16.751Z,59.37
2023-07-19T08:53:43.689Z,59.23
2023-07-19T08:56:16.928Z,58.98
2023-07-19T08:58:47.453Z,58.96
2023-07-19T09:01:17.506Z,59.03
2023-07-19T09:03:44.192Z,59.03
2023-07-19T09:06:10.801Z,59.04
2023-07-19T09:08:41.432Z,59.30
2023-07-19T09:11:08.533Z,58.86
2023-07-19T09:13:38.424Z,59.01
2023-07-19T09:16:06.032Z,58.87
2023-07-19T09:18:39.819Z,58.65
2023-07-19T09:21:07.131Z,58.67
2023-07-19T09:23:35.100Z,58.47
2023-07-19T09:26:05.646Z,58.47
2023-07-19T09:28:34.036Z,58.10
2023-07-19T09:31:15.846Z,58.07
2023-07-19T09:33:48.834Z,57.79
2023-07-19T09:36:17.799Z,57.94
2023-07-19T09:38:44.791Z,58.09
2023-07-19T09:41:11.660Z,57.82
2023-07-19T09:43:38.684Z,57.60
2023-07-19T09:46:05.490Z,57.68
2023-07-19T09:48:32.267Z,57.83
2023-07-19T09:51:02.574Z,57.60
2023-07-19T09:53:30.318Z,57.58
2023-07-19T09:56:00.986Z,57.43
2023-07-19T09:58:28.609Z,56.89
2023-07-19T10:00:57.684Z,57.03
2023-07-19T10:03:27.623Z,57.17
2023-07-19T10:05:58.104Z,56.11
2023-07-19T10:08:31.776Z,55.46
2023-07-19T10:11:02.505Z,55.59
2023-07-19T10:13:30.474Z,55.68
2023-07-19T10:15:57.901Z,56.12
2023-07-19T10:18:28.143Z,56.30
2023-07-19T10:21:05.077Z,55.82
2023-07-19T10:23:50.661Z,55.90
2023-07-19T10:26:29.332Z,55.75
2023-07-19T10:29:03.859Z,55.99
2023-07-19T10:37:22.653Z,56.12
2023-07-19T10:40:03.184Z,56.24
2023-07-19T10:42:50.560Z,56.22
2023-07-19T10:45:18.103Z,56.02
2023-07-19T10:47:49.996Z,56.02
2023-07-19T10:50:26.382Z,56.20
2023-07-19T10:52:54.050Z,56.33
2023-07-19T10:55:51.058Z,56.50
2023-07-19T10:58:17.191Z,56.75
2023-07-19T11:00:44.562Z,57.07
2023-07-19T11:03:32.506Z,57.02
2023-07-19T11:06:08.155Z,56.97
2023-07-19T11:11:52.620Z,56.97
2023-07-19T11:15:00.068Z,56.92
2023-07-19T11:17:36.564Z,56.62
2023-07-19T11:20:05.579Z,56.60
2023-07-19T11:25:31.364Z,56.46
2023-07-19T11:31:34.400Z,56.29
2023-07-19T11:34:13.618Z,56.35
2023-07-19T11:36:45.414Z,56.37
2023-07-19T11:39:17.360Z,56.41
2023-07-19T11:41:45.718Z,56.39
2023-07-19T11:44:19.980Z,56.40
2023-07-19T11:46:53.151Z,56.48
2023-07-19T11:49:22.452Z,56.32
2023-07-19T11:51:50.561Z,56.61
2023-07-19T11:54:19.586Z,56.75
2023-07-19T11:56:47.393Z,56.94
2023-07-19T11:59:14.573Z,56.90
2023-07-19T12:01:42.939Z,56.68
2023-07-19T12:04:10.294Z,56.75
2023-07-19T12:06:38.388Z,56.75
2023-07-19T12:09:10.837Z,56.68
2023-07-19T12:12:02.708Z,56.93
2023-07-19T12:14:56.242Z,56.66
2023-07-19T12:17:30.360Z,56.70
2023-07-19T12:20:00.658Z,56.51
2023-07-19T12:22:42.365Z,56.65
2023-07-19T12:25:30.262Z,56.89
2023-07-19T12:28:06.638Z,56.80
2023-07-19T12:30:41.771Z,56.74
2023-07-19T12:33:16.357Z,56.94
2023-07-19T12:35:49.259Z,56.81
2023-07-19T12:38:16.572Z,56.81
2023-07-19T12:40:46.654Z,56.64
2023-07-19T12:43:15.154Z,56.69
2023-07-19T12:45:43.848Z,56.63
2023-07-19T12:48:11.649Z,56.49
2023-07-19T12:50:52.393Z,56.53
2023-07-19T12:53:21.601Z,56.43
2023-07-19T12:55:50.158Z,56.22
2023-07-19T12:58:17.131Z,56.35
2023-07-19T13:00:50.549Z,56.73
2023-07-19T13:03:21.219Z,56.89
2023-07-19T13:05:50.773Z,56.65
2023-07-19T13:08:36.605Z,56.99
2023-07-19T13:11:10.479Z,56.74
2023-07-19T13:13:45.234Z,56.63
2023-07-19T13:16:15.282Z,56.76
2023-07-19T13:18:47.922Z,56.78
2023-07-19T13:21:28.568Z,56.90
2023-07-19T13:23:57.544Z,56.90
2023-07-19T13:26:32.271Z,56.77
2023-07-19T13:29:20.461Z,56.78
2023-07-19T13:34:55.315Z,56.44
2023-07-19T13:38:06.736Z,56.84
2023-07-19T13:40:16.134Z,56.99
2023-07-19T13:42:46.958Z,56.71
2023-07-19T13:45:17.889Z,57.11
2023-07-19T13:47:50.248Z,57.00
2023-07-19T13:50:20.544Z,56.56
2023-07-19T13:52:51.427Z,56.52
2023-07-19T13:55:22.541Z,56.50
2023-07-19T13:58:10.425Z,56.35
2023-07-19T14:00:41.111Z,56.38
2023-07-19T14:03:09.449Z,56.58
2023-07-19T14:05:37.338Z,56.90
2023-07-19T14:08:10.005Z,56.79
2023-07-19T14:10:59.567Z,56.89
2023-07-19T14:13:37.874Z,56.92
2023-07-19T14:16:07.459Z,57.13
2023-07-19T14:18:38.223Z,57.14
2023-07-19T14:21:10.887Z,57.14
2023-07-19T14:23:41.318Z,57.18
2023-07-19T14:26:14.766Z,57.23
2023-07-19T14:28:50.831Z,57.26
2023-07-19T14:31:22.827Z,57.06
2023-07-19T14:33:53.919Z,57.21
2023-07-19T14:36:24.638Z,57.28
2023-07-19T14:38:55.866Z,57.27
2023-07-19T14:41:28.359Z,57.52
2023-07-19T14:43:56.627Z,57.23
2023-07-19T14:46:29.036Z,57.34
2023-07-19T14:48:57.915Z,57.09
2023-07-19T14:51:30.825Z,57.21
2023-07-19T14:53:58.808Z,57.13
2023-07-19T14:56:29.957Z,57.12
2023-07-19T14:58:58.610Z,57.05
2023-07-19T15:01:26.556Z,57.07
2023-07-19T15:03:54.367Z,56.99
2023-07-19T15:06:25.391Z,57.07
2023-07-19T15:09:01.510Z,57.06
2023-07-19T15:11:35.918Z,57.06
2023-07-19T15:14:08.768Z,57.01
2023-07-19T15:16:48.678Z,57.10
2023-07-19T15:19:18.903Z,57.02
2023-07-19T15:21:46.279Z,56.97
2023-07-19T15:24:14.260Z,56.98
2023-07-19T15:26:46.608Z,57.01
2023-07-19T15:29:13.798Z,57.00
2023-07-19T15:31:42.744Z,57.07
2023-07-19T15:34:11.504Z,57.02
2023-07-19T15:36:43.798Z,56.97
2023-07-19T15:39:21.127Z,57.02
2023-07-19T15:41:50.033Z,57.03
2023-07-19T15:44:35.067Z,56.99
2023-07-19T15:47:04.131Z,57.02
2023-07-19T15:49:33.740Z,57.01
2023-07-19T15:52:16.085Z,57.03
2023-07-19T15:54:49.816Z,57.06
2023-07-19T15:57:17.661Z,57.05
2023-07-19T15:59:45.512Z,57.06
2023-07-19T16:02:16.490Z,57.15
2023-07-19T16:04:43.306Z,57.12
2023-07-19T16:07:15.348Z,57.13
2023-07-19T16:09:47.473Z,57.73
2023-07-19T16:12:19.100Z,57.42
2023-07-19T16:14:47.135Z,57.39
2023-07-19T16:17:14.877Z,57.33
2023-07-19T16:19:43.547Z,57.37
2023-07-19T16:22:25.893Z,57.29
2023-07-19T16:25:05.122Z,57.16
2023-07-19T16:27:34.860Z,57.08
2023-07-19T16:30:05.069Z,57.04
2023-07-19T16:32:54.969Z,57.00
2023-07-19T16:35:24.741Z,57.12
2023-07-19T16:37:57.666Z,56.92
2023-07-19T16:40:34.120Z,57.15
2023-07-19T16:43:22.432Z,57.18
2023-07-19T16:48:59.897Z,57.46
2023-07-19T16:51:35.711Z,57.57
2023-07-19T16:54:38.310Z,57.80
2023-07-19T16:57:14.570Z,57.84
2023-07-19T16:59:45.561Z,57.69
2023-07-19T17:02:20.269Z,57.64
2023-07-19T17:04:50.687Z,57.68
2023-07-19T17:07:32.973Z,57.63
2023-07-19T17:10:03.774Z,57.62
2023-07-19T17:12:39.496Z,57.66
2023-07-19T17:15:15.749Z,57.61
2023-07-19T17:17:56.570Z,57.65
2023-07-19T17:20:33.700Z,57.69
2023-07-19T17:23:08.855Z,57.61
2023-07-19T17:25:39.314Z,57.68
2023-07-19T17:28:11.663Z,57.61
2023-07-19T17:30:52.117Z,57.67
2023-07-19T17:33:33.407Z,57.60
2023-07-19T17:36:13.014Z,57.52
2023-07-19T17:38:57.881Z,57.57
2023-07-19T17:41:37.584Z,57.58
2023-07-19T17:44:21.140Z,57.51
2023-07-19T17:46:49.279Z,57.52
2023-07-19T17:49:32.168Z,57.49
2023-07-19T17:52:17.154Z,57.51
2023-07-19T17:55:05.647Z,57.51
2023-07-19T17:57:35.185Z,57.54
2023-07-19T18:00:14.555Z,57.55
2023-07-19T18:02:45.134Z,57.52
2023-07-19T18:05:35.472Z,57.46
2023-07-19T18:08:29.338Z,57.47
2023-07-19T18:11:01.433Z,57.45
2023-07-19T18:13:52.917Z,57.44
2023-07-19T18:16:43.916Z,57.29
2023-07-19T18:19:37.647Z,57.43
2023-07-19T18:22:13.509Z,57.19
2023-07-19T18:24:43.741Z,57.14
2023-07-19T18:27:18.106Z,56.67
2023-07-19T18:29:56.968Z,56.76
2023-07-19T18:32:25.626Z,56.78
2023-07-19T18:34:57.734Z,57.19
2023-07-19T18:37:28.018Z,57.14
2023-07-19T18:39:59.984Z,57.18
2023-07-19T18:42:31.600Z,57.14
2023-07-19T18:45:01.972Z,57.18
2023-07-19T18:47:29.633Z,57.27
2023-07-19T18:49:57.770Z,57.27
2023-07-19T18:52:27.948Z,57.41
2023-07-19T18:54:56.194Z,57.48
2023-07-19T18:57:27.540Z,57.60
2023-07-19T18:59:56.516Z,57.60
2023-07-19T19:02:34.599Z,57.68
2023-07-19T19:05:02.006Z,57.68
2023-07-19T19:07:33.576Z,57.52
2023-07-19T19:10:04.276Z,57.57
2023-07-19T19:12:31.160Z,57.86
2023-07-19T19:15:01.496Z,57.77
2023-07-19T19:17:28.358Z,57.93
2023-07-19T19:19:55.756Z,57.86
2023-07-19T19:22:22.960Z,57.91
2023-07-19T19:24:52.806Z,57.61
2023-07-19T19:27:22.437Z,57.56
2023-07-19T19:29:49.819Z,57.66
2023-07-19T19:32:16.844Z,57.70
2023-07-19T19:34:44.003Z,57.56
2023-07-19T19:37:10.726Z,57.64
2023-07-19T19:39:40.436Z,57.70
2023-07-19T19:42:07.286Z,57.81
2023-07-19T19:44:33.970Z,57.64
2023-07-19T19:47:03.902Z,57.70
2023-07-19T19:49:30.618Z,57.72
2023-07-19T19:52:00.008Z,57.75
2023-07-19T19:54:26.615Z,57.81
2023-07-19T19:56:53.414Z,57.76
2023-07-19T19:59:21.886Z,57.80
2023-07-19T20:01:49.589Z,57.81
2023-07-19T20:04:16.449Z,57.76
2023-07-19T20:06:43.154Z,57.83
2023-07-19T20:09:12.669Z,57.92
2023-07-19T20:11:39.869Z,57.94
2023-07-19T20:16:37.994Z,57.92
2023-07-19T20:19:32.182Z,58.18
2023-07-19T20:21:53.951Z,58.22
2023-07-19T20:24:25.682Z,58.16
2023-07-19T20:26:57.730Z,57.95
2023-07-19T20:29:26.891Z,57.89
2023-07-19T20:31:55.608Z,57.82
2023-07-19T20:42:11.267Z,57.63
2023-07-19T20:44:37.854Z,57.39
2023-07-19T20:47:05.490Z,57.45
2023-07-19T20:49:40.192Z,57.46
2023-07-19T20:52:07.891Z,57.44
2023-07-19T20:54:37.416Z,57.43
2023-07-19T20:57:04.073Z,57.41
2023-07-19T20:59:31.166Z,57.19
2023-07-19T21:01:57.888Z,57.34
2023-07-19T21:04:24.572Z,57.37
2023-07-19T21:06:51.264Z,57.48
2023-07-19T21:09:17.800Z,57.47
2023-07-19T21:11:44.333Z,57.42
2023-07-19T21:14:11.013Z,57.42
2023-07-19T21:16:39.914Z,57.35
2023-07-19T21:19:10.012Z,57.39
2023-07-19T21:21:36.774Z,57.23
2023-07-19T21:24:06.379Z,57.31
2023-07-19T21:26:36.192Z,57.36
2023-07-19T21:29:03.009Z,57.44
2023-07-19T21:31:34.919Z,57.44
2023-07-19T21:34:01.525Z,57.41
2023-07-19T21:36:28.224Z,57.42
2023-07-19T21:38:54.861Z,57.39
2023-07-19T21:41:21.678Z,57.36
2023-07-19T21:43:48.732Z,57.36
2023-07-19T21:46:15.609Z,57.30
2023-07-19T21:48:42.637Z,57.29
2023-07-19T21:51:09.576Z,57.20
2023-07-19T21:53:36.140Z,57.34
2023-07-19T21:56:02.782Z,57.33
2023-07-19T21:58:29.376Z,57.24
2023-07-19T22:00:55.971Z,57.36
2023-07-19T22:03:23.223Z,57.32
2023-07-19T22:05:49.881Z,57.21
2023-07-19T22:08:19.065Z,57.22
2023-07-19T22:10:45.792Z,57.23
2023-07-19T22:13:12.413Z,57.26
2023-07-19T22:15:39.116Z,57.26
2023-07-19T22:18:19.026Z,57.25
2023-07-19T22:20:46.250Z,57.28
2023-07-19T22:23:12.989Z,57.30
2023-07-19T22:25:39.789Z,57.29
2023-07-19T22:28:10.055Z,57.31
2023-07-19T22:30:36.664Z,57.35
2023-07-19T22:33:03.303Z,57.32
2023-07-19T22:35:29.947Z,57.25
2023-07-19T22:37:56.518Z,57.32
2023-07-19T22:40:23.120Z,57.35
2023-07-19T22:42:51.115Z,57.24
2023-07-19T22:45:17.781Z,57.13
2023-07-19T22:47:44.673Z,57.07
2023-07-19T22:50:14.443Z,57.13
2023-07-19T22:52:42.186Z,57.09
2023-07-19T22:55:09.125Z,57.03
2023-07-19T22:57:38.042Z,56.92
2023-07-19T23:00:06.967Z,56.86
2023-07-19T23:02:33.647Z,56.81
2023-07-19T23:05:00.272Z,56.83
2023-07-19T23:07:26.859Z,56.89
2023-07-19T23:09:53.429Z,56.75
2023-07-19T23:12:19.966Z,56.61
2023-07-19T23:14:46.516Z,56.60
2023-07-19T23:17:13.181Z,56.49
2023-07-19T23:19:39.834Z,56.52
2023-07-19T23:22:06.409Z,56.53
2023-07-19T23:24:33.048Z,56.58
2023-07-19T23:26:59.717Z,56.60
2023-07-19T23:29:26.240Z,56.60
2023-07-19T23:31:52.820Z,56.61
2023-07-19T23:34:19.492Z,56.65
2023-07-19T23:36:46.010Z,56.76
2023-07-19T23:39:12.574Z,56.76
2023-07-19T23:41:39.170Z,56.72
2023-07-19T23:44:05.719Z,56.75
2023-07-19T23:46:32.358Z,56.83
2023-07-19T23:48:58.972Z,56.81
2023-07-19T23:51:25.574Z,56.89
2023-07-19T23:53:52.224Z,56.85
2023-07-19T23:56:18.798Z,56.87
2023-07-19T23:58:48.682Z,56.88
